El Vergel, Argentina
Current Conditions -  °F | °C
As of 4:00 PM on Saturday 25 Oct 2014 (Local Time) from SAME Reporting Station
Few Clouds Few Clouds  
Wind Chill: 90°   Ceiling: Unl
Heat Index: 90°   Visibility: 6mi
Dew Point: 59°   Wind: 6mph
Humidity: 36%   Direction: 50°NE
Pressure: 29.74"   Gusts: NA
Location:  32.75°S, 68.6°W
Report Text: SAME 251900Z 05005KT 9999 FEW040 32/15 Q1007
Loading
Personal Weather Stations






























Interactive Weather Map
Tropical Storm Tracking
New forecast layout! Learn more

10-Day Weather Forecast

Advertisements
Track Severe Weather on mobile